San Francisco, CA

6:19 AM PST on December 19, 2014 (GMT -0800)
San Francisco International | Change Station
CLOSE
Current Station
Airport
Location: San Francisco,
Elevation: 16 ft
Nearby Weather Stations

Elev 16 ft 37.62 °N, 122.37 °W | Updated 23 minutes ago

Overcast
Overcast
55 °F
Feels Like 55 °F
N
6
Wind Variable Wind from SE

Today
High -- | Low -- °F
--% Chance of Precip.
Yesterday
High -- | Low -- °F
Precip. -- in
7:19 AM 4:53 PM
Waning Crescent, 8% visible
Pressure 30.11 in
Visibility 8.0 miles
Clouds Few 1400 ft
Mostly Cloudy 2100 ft
Overcast 2900 ft
Dew Point 55 °F
Humidity 100%
Rainfall 0.02 in
Snow Depth Not available.
UV 0 out of 12
Pollen 2.00 out of 12
Air Quality Not available.
Flu Activity Not available.
METAR KSFO 191356Z 14005KT 8SM -RA FEW014 BKN021 OVC029 13/13 A3011 RMK AO2 RAB45 SLP196 P0001 T01280128

More Conditions Fewer Conditions

Pressure 30.11 in
Visibility 8.0 miles
Clouds Few 1400 ft
Mostly Cloudy 2100 ft
Overcast 2900 ft
Dew Point 55 °F
Humidity 100%
Rainfall 0.02 in
Snow Depth Not available.
UV 0 out of 12
Pollen 2.00 out of 12
Air Quality Not available.
Flu Activity Not available.
METAR KSFO 191356Z 14005KT 8SM -RA FEW014 BKN021 OVC029 13/13 A3011 RMK AO2 RAB45 SLP196 P0001 T01280128

More Conditions Fewer Conditions

10-Day Weather Forecast

Almanac

Astronomy

Dec. 19, 2014 Rise Set
Actual Time
Civil Twilight
Nautical Twilight
Astronomical Twilight
Moon
Length of Visible Light
Length of Day
Tomorrow will be .
, % of the Moon is Illuminated

Today's Extremes

State Highs State Lows

Community

WunderPhotos

Upload Photos

1,778,987 photos uploaded!

WunderBlogs® & News

Nearby

Air Quality

  Air Quality AQ Index Pollutant
Not available.

Snow Depth

Station Depth Elevation

Earthquake Activity

City Distance Mag. Time & Date
Minimum magnitude displayed is 2.5.

Coastal Water Temperatures

Place Temperature

Nearby Weather Stations